sensor_id;sensor_type;location;lat;lon;timestamp;P1;durP1;ratioP1;P2;durP2;ratioP2
58661;SDS011;44432;49.786;22.760;2024-03-02T00:02:27;42.10;;;26.60;;
58661;SDS011;44432;49.786;22.760;2024-03-02T00:04:58;43.20;;;25.80;;
58661;SDS011;44432;49.786;22.760;2024-03-02T00:07:29;39.90;;;26.70;;
58661;SDS011;44432;49.786;22.760;2024-03-02T00:10:00;41.50;;;26.10;;
58661;SDS011;44432;49.786;22.760;2024-03-02T00:12:37;43.00;;;25.40;;
58661;SDS011;44432;49.786;22.760;2024-03-02T00:15:24;40.60;;;25.40;;
58661;SDS011;44432;49.786;22.760;2024-03-02T00:18:10;41.10;;;25.60;;
58661;SDS011;44432;49.786;22.760;2024-03-02T00:20:41;42.70;;;25.30;;
58661;SDS011;44432;49.786;22.760;2024-03-02T00:23:13;41.30;;;26.30;;
58661;SDS011;44432;49.786;22.760;2024-03-02T00:25:46;39.50;;;25.00;;
58661;SDS011;44432;49.786;22.760;2024-03-02T00:28:19;39.60;;;24.70;;
58661;SDS011;44432;49.786;22.760;2024-03-02T00:30:54;38.10;;;25.20;;
58661;SDS011;44432;49.786;22.760;2024-03-02T00:33:30;41.20;;;25.00;;
58661;SDS011;44432;49.786;22.760;2024-03-02T00:36:04;40.50;;;25.10;;
58661;SDS011;44432;49.786;22.760;2024-03-02T00:38:40;42.50;;;26.10;;
58661;SDS011;44432;49.786;22.760;2024-03-02T00:41:17;36.00;;;23.80;;
58661;SDS011;44432;49.786;22.760;2024-03-02T00:43:57;43.10;;;25.10;;
58661;SDS011;44432;49.786;22.760;2024-03-02T00:46:31;36.50;;;23.90;;
58661;SDS011;44432;49.786;22.760;2024-03-02T00:49:05;38.00;;;24.80;;
58661;SDS011;44432;49.786;22.760;2024-03-02T00:51:49;37.60;;;24.40;;
58661;SDS011;44432;49.786;22.760;2024-03-02T00:54:21;34.60;;;23.30;;
58661;SDS011;44432;49.786;22.760;2024-03-02T00:56:54;36.90;;;23.50;;
58661;SDS011;44432;49.786;22.760;2024-03-02T00:59:26;41.70;;;25.20;;
58661;SDS011;44432;49.786;22.760;2024-03-02T01:01:57;41.20;;;25.00;;
58661;SDS011;44432;49.786;22.760;2024-03-02T01:04:29;42.10;;;26.20;;
58661;SDS011;44432;49.786;22.760;2024-03-02T01:07:00;39.90;;;24.40;;
58661;SDS011;44432;49.786;22.760;2024-03-02T01:09:30;39.70;;;25.70;;
58661;SDS011;44432;49.786;22.760;2024-03-02T01:12:01;43.50;;;26.30;;
58661;SDS011;44432;49.786;22.760;2024-03-02T01:14:32;38.50;;;24.70;;
58661;SDS011;44432;49.786;22.760;2024-03-02T01:17:03;39.90;;;24.20;;
58661;SDS011;44432;49.786;22.760;2024-03-02T01:19:34;38.80;;;24.60;;
58661;SDS011;44432;49.786;22.760;2024-03-02T01:22:05;40.40;;;25.00;;
58661;SDS011;44432;49.786;22.760;2024-03-02T01:24:36;38.90;;;24.90;;
58661;SDS011;44432;49.786;22.760;2024-03-02T01:27:08;35.00;;;21.60;;
58661;SDS011;44432;49.786;22.760;2024-03-02T01:29:39;38.00;;;24.30;;
58661;SDS011;44432;49.786;22.760;2024-03-02T01:32:10;36.50;;;24.00;;
58661;SDS011;44432;49.786;22.760;2024-03-02T01:34:40;38.70;;;24.30;;
58661;SDS011;44432;49.786;22.760;2024-03-02T01:37:11;51.30;;;25.50;;
58661;SDS011;44432;49.786;22.760;2024-03-02T01:39:42;41.20;;;25.20;;
58661;SDS011;44432;49.786;22.760;2024-03-02T01:42:12;42.40;;;26.00;;
58661;SDS011;44432;49.786;22.760;2024-03-02T01:44:43;42.40;;;25.30;;
58661;SDS011;44432;49.786;22.760;2024-03-02T01:47:14;40.70;;;24.70;;
58661;SDS011;44432;49.786;22.760;2024-03-02T01:49:45;41.20;;;25.20;;
58661;SDS011;44432;49.786;22.760;2024-03-02T01:52:15;41.20;;;24.50;;
58661;SDS011;44432;49.786;22.760;2024-03-02T01:54:46;43.60;;;25.90;;
58661;SDS011;44432;49.786;22.760;2024-03-02T01:57:17;41.90;;;26.80;;
58661;SDS011;44432;49.786;22.760;2024-03-02T01:59:48;38.90;;;23.80;;
58661;SDS011;44432;49.786;22.760;2024-03-02T02:02:19;37.70;;;25.30;;
58661;SDS011;44432;49.786;22.760;2024-03-02T02:04:50;42.50;;;25.60;;
58661;SDS011;44432;49.786;22.760;2024-03-02T02:07:21;40.30;;;25.30;;
58661;SDS011;44432;49.786;22.760;2024-03-02T02:09:52;43.00;;;25.30;;
58661;SDS011;44432;49.786;22.760;2024-03-02T02:12:23;44.30;;;25.30;;
58661;SDS011;44432;49.786;22.760;2024-03-02T02:14:53;40.60;;;24.00;;
58661;SDS011;44432;49.786;22.760;2024-03-02T02:17:24;40.50;;;24.30;;
58661;SDS011;44432;49.786;22.760;2024-03-02T02:19:55;41.80;;;24.70;;
58661;SDS011;44432;49.786;22.760;2024-03-02T02:22:26;44.70;;;26.60;;
58661;SDS011;44432;49.786;22.760;2024-03-02T02:24:57;44.80;;;24.90;;
58661;SDS011;44432;49.786;22.760;2024-03-02T02:27:27;45.20;;;27.80;;
58661;SDS011;44432;49.786;22.760;2024-03-02T02:29:58;44.70;;;26.60;;
58661;SDS011;44432;49.786;22.760;2024-03-02T02:32:31;40.80;;;25.00;;
58661;SDS011;44432;49.786;22.760;2024-03-02T02:35:01;40.60;;;24.60;;
58661;SDS011;44432;49.786;22.760;2024-03-02T02:37:33;45.50;;;25.50;;
58661;SDS011;44432;49.786;22.760;2024-03-02T02:40:04;49.10;;;26.60;;
58661;SDS011;44432;49.786;22.760;2024-03-02T02:42:36;42.00;;;24.00;;
58661;SDS011;44432;49.786;22.760;2024-03-02T02:45:08;41.90;;;23.50;;
58661;SDS011;44432;49.786;22.760;2024-03-02T02:47:38;42.20;;;24.20;;
58661;SDS011;44432;49.786;22.760;2024-03-02T02:50:10;41.90;;;24.50;;
58661;SDS011;44432;49.786;22.760;2024-03-02T02:52:41;40.60;;;23.70;;
58661;SDS011;44432;49.786;22.760;2024-03-02T02:55:12;45.40;;;24.60;;
58661;SDS011;44432;49.786;22.760;2024-03-02T02:57:43;42.70;;;24.80;;
58661;SDS011;44432;49.786;22.760;2024-03-02T03:00:16;40.40;;;24.30;;
58661;SDS011;44432;49.786;22.760;2024-03-02T03:02:50;41.40;;;25.30;;
58661;SDS011;44432;49.786;22.760;2024-03-02T03:05:21;44.40;;;25.00;;
58661;SDS011;44432;49.786;22.760;2024-03-02T03:07:52;42.20;;;24.80;;
58661;SDS011;44432;49.786;22.760;2024-03-02T03:10:22;44.40;;;23.70;;
58661;SDS011;44432;49.786;22.760;2024-03-02T03:12:55;41.20;;;24.10;;
58661;SDS011;44432;49.786;22.760;2024-03-02T03:15:26;41.30;;;24.00;;
58661;SDS011;44432;49.786;22.760;2024-03-02T03:17:56;46.50;;;26.20;;
58661;SDS011;44432;49.786;22.760;2024-03-02T03:20:27;39.80;;;23.80;;
58661;SDS011;44432;49.786;22.760;2024-03-02T03:22:58;43.70;;;25.30;;
58661;SDS011;44432;49.786;22.760;2024-03-02T03:25:29;42.00;;;23.10;;
58661;SDS011;44432;49.786;22.760;2024-03-02T03:28:00;45.50;;;24.10;;
58661;SDS011;44432;49.786;22.760;2024-03-02T03:30:31;42.70;;;25.00;;
58661;SDS011;44432;49.786;22.760;2024-03-02T03:33:01;47.00;;;25.20;;
58661;SDS011;44432;49.786;22.760;2024-03-02T03:35:33;42.30;;;23.50;;
58661;SDS011;44432;49.786;22.760;2024-03-02T03:38:05;41.80;;;24.20;;
58661;SDS011;44432;49.786;22.760;2024-03-02T03:40:36;45.00;;;24.90;;
58661;SDS011;44432;49.786;22.760;2024-03-02T03:43:06;44.20;;;24.80;;
58661;SDS011;44432;49.786;22.760;2024-03-02T03:45:37;41.60;;;24.20;;
58661;SDS011;44432;49.786;22.760;2024-03-02T03:48:09;44.30;;;24.90;;
58661;SDS011;44432;49.786;22.760;2024-03-02T03:50:39;45.70;;;24.90;;
58661;SDS011;44432;49.786;22.760;2024-03-02T03:53:10;44.90;;;25.60;;
58661;SDS011;44432;49.786;22.760;2024-03-02T03:55:42;41.70;;;24.60;;
58661;SDS011;44432;49.786;22.760;2024-03-02T03:58:14;51.70;;;25.40;;
58661;SDS011;44432;49.786;22.760;2024-03-02T04:00:46;53.00;;;26.70;;
58661;SDS011;44432;49.786;22.760;2024-03-02T04:03:17;46.60;;;24.90;;
58661;SDS011;44432;49.786;22.760;2024-03-02T04:05:48;46.80;;;25.30;;
58661;SDS011;44432;49.786;22.760;2024-03-02T04:08:19;50.10;;;26.10;;
58661;SDS011;44432;49.786;22.760;2024-03-02T04:10:49;41.40;;;25.30;;
58661;SDS011;44432;49.786;22.760;2024-03-02T04:13:20;44.10;;;25.50;;
58661;SDS011;44432;49.786;22.760;2024-03-02T04:15:51;44.30;;;24.80;;
58661;SDS011;44432;49.786;22.760;2024-03-02T04:18:22;44.60;;;26.20;;
58661;SDS011;44432;49.786;22.760;2024-03-02T04:20:52;43.90;;;25.30;;
58661;SDS011;44432;49.786;22.760;2024-03-02T04:23:24;44.70;;;25.00;;
58661;SDS011;44432;49.786;22.760;2024-03-02T04:25:54;49.50;;;25.20;;
58661;SDS011;44432;49.786;22.760;2024-03-02T04:28:25;47.10;;;25.10;;
58661;SDS011;44432;49.786;22.760;2024-03-02T04:30:56;46.10;;;24.90;;
58661;SDS011;44432;49.786;22.760;2024-03-02T04:33:27;45.40;;;25.40;;
58661;SDS011;44432;49.786;22.760;2024-03-02T04:35:57;48.80;;;27.30;;
58661;SDS011;44432;49.786;22.760;2024-03-02T04:38:28;48.20;;;25.40;;
58661;SDS011;44432;49.786;22.760;2024-03-02T04:41:00;45.50;;;27.40;;
58661;SDS011;44432;49.786;22.760;2024-03-02T04:43:30;42.90;;;26.40;;
58661;SDS011;44432;49.786;22.760;2024-03-02T04:46:01;41.80;;;24.80;;
58661;SDS011;44432;49.786;22.760;2024-03-02T04:48:32;48.30;;;25.30;;
58661;SDS011;44432;49.786;22.760;2024-03-02T04:51:03;41.80;;;26.20;;
58661;SDS011;44432;49.786;22.760;2024-03-02T04:53:34;44.70;;;26.60;;
58661;SDS011;44432;49.786;22.760;2024-03-02T04:56:06;47.40;;;27.90;;
58661;SDS011;44432;49.786;22.760;2024-03-02T04:59:07;45.90;;;27.60;;
58661;SDS011;44432;49.786;22.760;2024-03-02T05:01:37;43.40;;;27.00;;
58661;SDS011;44432;49.786;22.760;2024-03-02T05:04:08;45.30;;;25.80;;
58661;SDS011;44432;49.786;22.760;2024-03-02T05:06:39;46.00;;;27.30;;
58661;SDS011;44432;49.786;22.760;2024-03-02T05:09:11;42.80;;;25.70;;
58661;SDS011;44432;49.786;22.760;2024-03-02T05:11:41;40.00;;;26.00;;
58661;SDS011;44432;49.786;22.760;2024-03-02T05:14:29;46.70;;;27.00;;
58661;SDS011;44432;49.786;22.760;2024-03-02T05:17:00;44.70;;;26.40;;
58661;SDS011;44432;49.786;22.760;2024-03-02T05:19:30;48.60;;;27.10;;
58661;SDS011;44432;49.786;22.760;2024-03-02T05:22:01;47.20;;;27.50;;
58661;SDS011;44432;49.786;22.760;2024-03-02T05:24:33;45.10;;;26.00;;
58661;SDS011;44432;49.786;22.760;2024-03-02T05:27:04;44.50;;;24.90;;
58661;SDS011;44432;49.786;22.760;2024-03-02T05:29:35;48.20;;;25.20;;
58661;SDS011;44432;49.786;22.760;2024-03-02T05:32:06;40.90;;;25.00;;
58661;SDS011;44432;49.786;22.760;2024-03-02T05:34:37;47.20;;;26.50;;
58661;SDS011;44432;49.786;22.760;2024-03-02T05:37:07;44.80;;;25.60;;
58661;SDS011;44432;49.786;22.760;2024-03-02T05:39:38;44.90;;;25.50;;
58661;SDS011;44432;49.786;22.760;2024-03-02T05:42:11;43.20;;;26.40;;
58661;SDS011;44432;49.786;22.760;2024-03-02T05:44:42;46.10;;;25.40;;
58661;SDS011;44432;49.786;22.760;2024-03-02T05:47:13;42.40;;;23.70;;
58661;SDS011;44432;49.786;22.760;2024-03-02T05:49:44;44.60;;;26.20;;
58661;SDS011;44432;49.786;22.760;2024-03-02T05:52:14;44.80;;;26.80;;
58661;SDS011;44432;49.786;22.760;2024-03-02T05:54:45;49.30;;;28.90;;
58661;SDS011;44432;49.786;22.760;2024-03-02T05:57:16;49.80;;;28.70;;
58661;SDS011;44432;49.786;22.760;2024-03-02T06:00:01;50.90;;;28.60;;
58661;SDS011;44432;49.786;22.760;2024-03-02T06:02:35;49.50;;;28.50;;
58661;SDS011;44432;49.786;22.760;2024-03-02T06:05:09;47.40;;;28.60;;
58661;SDS011;44432;49.786;22.760;2024-03-02T06:07:40;44.70;;;27.10;;
58661;SDS011;44432;49.786;22.760;2024-03-02T06:10:11;47.60;;;27.10;;
58661;SDS011;44432;49.786;22.760;2024-03-02T06:12:43;48.70;;;28.50;;
58661;SDS011;44432;49.786;22.760;2024-03-02T06:15:14;49.40;;;28.10;;
58661;SDS011;44432;49.786;22.760;2024-03-02T06:17:44;47.80;;;28.40;;
58661;SDS011;44432;49.786;22.760;2024-03-02T06:20:15;49.90;;;29.60;;
58661;SDS011;44432;49.786;22.760;2024-03-02T06:22:46;43.60;;;27.70;;
58661;SDS011;44432;49.786;22.760;2024-03-02T06:25:17;49.10;;;28.90;;
58661;SDS011;44432;49.786;22.760;2024-03-02T06:27:47;51.10;;;30.70;;
58661;SDS011;44432;49.786;22.760;2024-03-02T06:30:18;47.10;;;29.60;;
58661;SDS011;44432;49.786;22.760;2024-03-02T06:32:49;43.30;;;27.80;;
58661;SDS011;44432;49.786;22.760;2024-03-02T06:35:20;49.50;;;28.90;;
58661;SDS011;44432;49.786;22.760;2024-03-02T06:37:51;43.00;;;27.30;;
58661;SDS011;44432;49.786;22.760;2024-03-02T06:40:22;48.60;;;27.40;;
58661;SDS011;44432;49.786;22.760;2024-03-02T06:42:53;60.90;;;28.90;;
58661;SDS011;44432;49.786;22.760;2024-03-02T06:45:24;55.10;;;33.70;;
58661;SDS011;44432;49.786;22.760;2024-03-02T06:47:55;53.20;;;31.70;;
58661;SDS011;44432;49.786;22.760;2024-03-02T06:50:26;48.20;;;29.50;;
58661;SDS011;44432;49.786;22.760;2024-03-02T06:52:56;51.30;;;28.70;;
58661;SDS011;44432;49.786;22.760;2024-03-02T06:55:27;44.90;;;28.00;;
58661;SDS011;44432;49.786;22.760;2024-03-02T06:57:58;48.00;;;28.20;;
58661;SDS011;44432;49.786;22.760;2024-03-02T07:00:29;45.00;;;27.10;;
58661;SDS011;44432;49.786;22.760;2024-03-02T07:02:59;48.30;;;26.90;;
58661;SDS011;44432;49.786;22.760;2024-03-02T07:05:30;43.50;;;27.00;;
58661;SDS011;44432;49.786;22.760;2024-03-02T07:08:01;44.90;;;27.20;;
58661;SDS011;44432;49.786;22.760;2024-03-02T07:10:33;48.00;;;26.90;;
58661;SDS011;44432;49.786;22.760;2024-03-02T07:13:04;48.80;;;27.80;;
58661;SDS011;44432;49.786;22.760;2024-03-02T07:15:34;46.90;;;28.50;;
58661;SDS011;44432;49.786;22.760;2024-03-02T07:18:27;45.10;;;27.10;;
58661;SDS011;44432;49.786;22.760;2024-03-02T07:20:58;48.70;;;28.40;;
58661;SDS011;44432;49.786;22.760;2024-03-02T07:23:29;49.70;;;27.90;;
58661;SDS011;44432;49.786;22.760;2024-03-02T07:26:00;48.80;;;28.20;;
58661;SDS011;44432;49.786;22.760;2024-03-02T07:28:31;50.00;;;28.50;;
58661;SDS011;44432;49.786;22.760;2024-03-02T07:31:02;44.20;;;26.80;;
58661;SDS011;44432;49.786;22.760;2024-03-02T07:33:34;45.10;;;26.50;;
58661;SDS011;44432;49.786;22.760;2024-03-02T07:36:05;48.00;;;27.50;;
58661;SDS011;44432;49.786;22.760;2024-03-02T07:38:36;46.40;;;27.20;;
58661;SDS011;44432;49.786;22.760;2024-03-02T07:41:08;49.20;;;27.80;;
58661;SDS011;44432;49.786;22.760;2024-03-02T07:43:39;47.20;;;27.60;;
58661;SDS011;44432;49.786;22.760;2024-03-02T07:46:10;46.20;;;27.30;;
58661;SDS011;44432;49.786;22.760;2024-03-02T07:48:41;49.50;;;28.00;;
58661;SDS011;44432;49.786;22.760;2024-03-02T07:51:12;47.90;;;29.30;;
58661;SDS011;44432;49.786;22.760;2024-03-02T07:53:43;48.30;;;26.70;;
58661;SDS011;44432;49.786;22.760;2024-03-02T07:56:14;47.10;;;27.40;;
58661;SDS011;44432;49.786;22.760;2024-03-02T07:58:49;44.70;;;26.90;;
58661;SDS011;44432;49.786;22.760;2024-03-02T08:01:21;46.50;;;27.10;;
58661;SDS011;44432;49.786;22.760;2024-03-02T08:03:51;46.20;;;27.10;;
58661;SDS011;44432;49.786;22.760;2024-03-02T08:06:23;46.00;;;26.40;;
58661;SDS011;44432;49.786;22.760;2024-03-02T08:08:55;44.00;;;25.80;;
58661;SDS011;44432;49.786;22.760;2024-03-02T08:11:27;57.10;;;27.30;;
58661;SDS011;44432;49.786;22.760;2024-03-02T08:13:59;43.40;;;25.70;;
58661;SDS011;44432;49.786;22.760;2024-03-02T08:16:29;44.40;;;25.60;;
58661;SDS011;44432;49.786;22.760;2024-03-02T08:19:00;43.10;;;26.70;;
58661;SDS011;44432;49.786;22.760;2024-03-02T08:21:31;50.20;;;28.60;;
58661;SDS011;44432;49.786;22.760;2024-03-02T08:24:03;48.70;;;29.90;;
58661;SDS011;44432;49.786;22.760;2024-03-02T08:26:34;47.10;;;28.40;;
58661;SDS011;44432;49.786;22.760;2024-03-02T08:29:08;47.30;;;28.00;;
58661;SDS011;44432;49.786;22.760;2024-03-02T08:31:39;47.50;;;27.10;;
58661;SDS011;44432;49.786;22.760;2024-03-02T08:34:10;48.20;;;27.30;;
58661;SDS011;44432;49.786;22.760;2024-03-02T08:36:41;42.30;;;26.70;;
58661;SDS011;44432;49.786;22.760;2024-03-02T08:39:12;51.40;;;27.60;;
58661;SDS011;44432;49.786;22.760;2024-03-02T08:41:44;52.40;;;28.80;;
58661;SDS011;44432;49.786;22.760;2024-03-02T08:44:15;49.10;;;29.10;;
58661;SDS011;44432;49.786;22.760;2024-03-02T08:46:46;49.20;;;30.00;;
58661;SDS011;44432;49.786;22.760;2024-03-02T08:49:17;51.10;;;29.90;;
58661;SDS011;44432;49.786;22.760;2024-03-02T08:51:48;49.00;;;27.20;;
58661;SDS011;44432;49.786;22.760;2024-03-02T08:54:22;48.10;;;28.60;;
58661;SDS011;44432;49.786;22.760;2024-03-02T08:56:53;41.90;;;26.40;;
58661;SDS011;44432;49.786;22.760;2024-03-02T08:59:24;44.00;;;27.20;;
58661;SDS011;44432;49.786;22.760;2024-03-02T09:01:55;50.30;;;28.80;;
58661;SDS011;44432;49.786;22.760;2024-03-02T09:04:26;52.00;;;32.00;;
58661;SDS011;44432;49.786;22.760;2024-03-02T09:06:58;44.80;;;28.40;;
58661;SDS011;44432;49.786;22.760;2024-03-02T09:09:29;45.50;;;27.00;;
58661;SDS011;44432;49.786;22.760;2024-03-02T09:12:00;45.90;;;28.60;;
58661;SDS011;44432;49.786;22.760;2024-03-02T09:14:31;52.50;;;31.00;;
58661;SDS011;44432;49.786;22.760;2024-03-02T09:17:02;49.40;;;28.40;;
58661;SDS011;44432;49.786;22.760;2024-03-02T09:19:33;46.10;;;28.90;;
58661;SDS011;44432;49.786;22.760;2024-03-02T09:22:04;50.50;;;32.60;;
58661;SDS011;44432;49.786;22.760;2024-03-02T09:24:34;52.60;;;32.30;;
58661;SDS011;44432;49.786;22.760;2024-03-02T09:27:05;60.50;;;34.50;;
58661;SDS011;44432;49.786;22.760;2024-03-02T09:29:40;53.10;;;31.20;;
58661;SDS011;44432;49.786;22.760;2024-03-02T09:32:13;51.50;;;30.60;;
58661;SDS011;44432;49.786;22.760;2024-03-02T09:37:13;53.10;;;31.00;;
58661;SDS011;44432;49.786;22.760;2024-03-02T09:39:44;49.80;;;29.10;;
58661;SDS011;44432;49.786;22.760;2024-03-02T09:42:15;50.50;;;29.70;;
58661;SDS011;44432;49.786;22.760;2024-03-02T09:44:46;45.70;;;30.90;;
58661;SDS011;44432;49.786;22.760;2024-03-02T09:47:17;43.40;;;29.30;;
58661;SDS011;44432;49.786;22.760;2024-03-02T09:49:49;45.00;;;28.90;;
58661;SDS011;44432;49.786;22.760;2024-03-02T09:52:20;45.80;;;28.80;;
58661;SDS011;44432;49.786;22.760;2024-03-02T09:54:51;48.70;;;29.50;;
58661;SDS011;44432;49.786;22.760;2024-03-02T09:57:22;48.10;;;28.20;;
58661;SDS011;44432;49.786;22.760;2024-03-02T09:59:53;42.30;;;27.20;;
58661;SDS011;44432;49.786;22.760;2024-03-02T10:02:24;41.90;;;28.60;;
58661;SDS011;44432;49.786;22.760;2024-03-02T10:04:54;45.50;;;28.90;;
58661;SDS011;44432;49.786;22.760;2024-03-02T10:07:25;47.10;;;29.40;;
58661;SDS011;44432;49.786;22.760;2024-03-02T10:09:56;46.80;;;30.30;;
58661;SDS011;44432;49.786;22.760;2024-03-02T10:12:27;48.30;;;32.00;;
58661;SDS011;44432;49.786;22.760;2024-03-02T10:15:04;55.30;;;35.20;;
58661;SDS011;44432;49.786;22.760;2024-03-02T10:17:37;46.00;;;30.40;;
58661;SDS011;44432;49.786;22.760;2024-03-02T10:23:11;48.90;;;30.10;;
58661;SDS011;44432;49.786;22.760;2024-03-02T10:25:43;45.90;;;30.50;;
58661;SDS011;44432;49.786;22.760;2024-03-02T10:28:14;52.10;;;36.00;;
58661;SDS011;44432;49.786;22.760;2024-03-02T10:30:47;50.50;;;31.30;;
58661;SDS011;44432;49.786;22.760;2024-03-02T10:33:19;46.10;;;29.50;;
58661;SDS011;44432;49.786;22.760;2024-03-02T10:35:50;44.10;;;28.90;;
58661;SDS011;44432;49.786;22.760;2024-03-02T10:38:22;41.90;;;28.00;;
58661;SDS011;44432;49.786;22.760;2024-03-02T10:40:54;40.70;;;27.00;;
58661;SDS011;44432;49.786;22.760;2024-03-02T10:43:27;44.60;;;28.50;;
58661;SDS011;44432;49.786;22.760;2024-03-02T10:45:59;48.50;;;28.80;;
58661;SDS011;44432;49.786;22.760;2024-03-02T10:48:30;42.80;;;29.30;;
58661;SDS011;44432;49.786;22.760;2024-03-02T10:53:33;48.20;;;31.50;;
58661;SDS011;44432;49.786;22.760;2024-03-02T10:56:04;50.90;;;32.60;;
58661;SDS011;44432;49.786;22.760;2024-03-02T10:58:38;46.70;;;31.90;;
58661;SDS011;44432;49.786;22.760;2024-03-02T11:01:09;50.80;;;33.20;;
58661;SDS011;44432;49.786;22.760;2024-03-02T11:03:41;57.80;;;33.40;;
58661;SDS011;44432;49.786;22.760;2024-03-02T11:06:13;47.20;;;30.30;;
58661;SDS011;44432;49.786;22.760;2024-03-02T11:08:45;47.40;;;32.50;;
58661;SDS011;44432;49.786;22.760;2024-03-02T11:11:20;44.90;;;29.60;;
58661;SDS011;44432;49.786;22.760;2024-03-02T11:13:57;47.60;;;30.70;;
58661;SDS011;44432;49.786;22.760;2024-03-02T11:16:36;52.10;;;33.70;;
58661;SDS011;44432;49.786;22.760;2024-03-02T11:21:40;43.60;;;29.30;;
58661;SDS011;44432;49.786;22.760;2024-03-02T11:24:31;44.30;;;29.90;;
58661;SDS011;44432;49.786;22.760;2024-03-02T11:27:03;45.60;;;31.80;;
58661;SDS011;44432;49.786;22.760;2024-03-02T11:29:45;50.10;;;33.20;;
58661;SDS011;44432;49.786;22.760;2024-03-02T11:32:17;45.80;;;31.30;;
58661;SDS011;44432;49.786;22.760;2024-03-02T11:34:51;50.40;;;31.80;;
58661;SDS011;44432;49.786;22.760;2024-03-02T11:37:21;47.90;;;31.80;;
58661;SDS011;44432;49.786;22.760;2024-03-02T11:39:53;56.00;;;33.00;;
58661;SDS011;44432;49.786;22.760;2024-03-02T11:42:24;50.40;;;32.30;;
58661;SDS011;44432;49.786;22.760;2024-03-02T11:44:55;48.60;;;29.90;;
58661;SDS011;44432;49.786;22.760;2024-03-02T11:47:28;48.00;;;30.40;;
58661;SDS011;44432;49.786;22.760;2024-03-02T11:50:01;52.90;;;32.50;;
58661;SDS011;44432;49.786;22.760;2024-03-02T11:52:34;48.90;;;32.80;;
58661;SDS011;44432;49.786;22.760;2024-03-02T11:55:07;52.90;;;31.10;;
58661;SDS011;44432;49.786;22.760;2024-03-02T11:57:40;59.70;;;35.70;;
58661;SDS011;44432;49.786;22.760;2024-03-02T12:00:17;53.20;;;34.90;;
58661;SDS011;44432;49.786;22.760;2024-03-02T12:02:55;55.10;;;34.50;;
58661;SDS011;44432;49.786;22.760;2024-03-02T12:05:30;52.90;;;34.50;;
58661;SDS011;44432;49.786;22.760;2024-03-02T12:08:03;55.70;;;34.30;;
58661;SDS011;44432;49.786;22.760;2024-03-02T12:10:36;55.90;;;37.20;;
58661;SDS011;44432;49.786;22.760;2024-03-02T12:13:07;64.10;;;38.60;;
58661;SDS011;44432;49.786;22.760;2024-03-02T12:15:39;60.10;;;38.60;;
58661;SDS011;44432;49.786;22.760;2024-03-02T12:18:09;56.70;;;35.30;;
58661;SDS011;44432;49.786;22.760;2024-03-02T12:20:40;55.50;;;35.30;;
58661;SDS011;44432;49.786;22.760;2024-03-02T12:23:11;54.50;;;35.20;;
58661;SDS011;44432;49.786;22.760;2024-03-02T12:25:42;58.40;;;35.50;;
58661;SDS011;44432;49.786;22.760;2024-03-02T12:28:13;52.60;;;34.60;;
58661;SDS011;44432;49.786;22.760;2024-03-02T12:30:45;54.60;;;34.10;;
58661;SDS011;44432;49.786;22.760;2024-03-02T12:33:17;54.10;;;36.20;;
58661;SDS011;44432;49.786;22.760;2024-03-02T12:35:51;57.60;;;36.10;;
58661;SDS011;44432;49.786;22.760;2024-03-02T12:38:22;60.10;;;38.60;;
58661;SDS011;44432;49.786;22.760;2024-03-02T12:40:54;57.20;;;38.30;;
58661;SDS011;44432;49.786;22.760;2024-03-02T12:43:29;53.70;;;35.60;;
58661;SDS011;44432;49.786;22.760;2024-03-02T12:46:00;59.70;;;38.10;;
58661;SDS011;44432;49.786;22.760;2024-03-02T12:48:32;57.30;;;38.00;;
58661;SDS011;44432;49.786;22.760;2024-03-02T12:51:03;58.80;;;38.40;;
58661;SDS011;44432;49.786;22.760;2024-03-02T12:53:34;48.20;;;34.00;;
58661;SDS011;44432;49.786;22.760;2024-03-02T12:56:06;46.80;;;33.30;;
58661;SDS011;44432;49.786;22.760;2024-03-02T12:58:40;47.00;;;30.50;;
58661;SDS011;44432;49.786;22.760;2024-03-02T13:01:11;45.60;;;30.20;;
58661;SDS011;44432;49.786;22.760;2024-03-02T13:03:46;52.90;;;33.40;;
58661;SDS011;44432;49.786;22.760;2024-03-02T13:06:19;62.90;;;40.50;;
58661;SDS011;44432;49.786;22.760;2024-03-02T13:08:50;42.80;;;28.60;;
58661;SDS011;44432;49.786;22.760;2024-03-02T13:11:22;37.40;;;24.80;;
58661;SDS011;44432;49.786;22.760;2024-03-02T13:13:53;30.10;;;20.80;;
58661;SDS011;44432;49.786;22.760;2024-03-02T13:16:24;29.40;;;21.10;;
58661;SDS011;44432;49.786;22.760;2024-03-02T13:18:55;27.90;;;21.00;;
58661;SDS011;44432;49.786;22.760;2024-03-02T13:21:26;33.50;;;21.60;;
58661;SDS011;44432;49.786;22.760;2024-03-02T13:23:56;31.60;;;21.00;;
58661;SDS011;44432;49.786;22.760;2024-03-02T13:26:28;31.70;;;21.40;;
58661;SDS011;44432;49.786;22.760;2024-03-02T13:28:59;37.90;;;23.60;;
58661;SDS011;44432;49.786;22.760;2024-03-02T13:31:30;27.80;;;21.00;;
58661;SDS011;44432;49.786;22.760;2024-03-02T13:34:00;32.80;;;22.80;;
58661;SDS011;44432;49.786;22.760;2024-03-02T13:36:31;29.10;;;22.30;;
58661;SDS011;44432;49.786;22.760;2024-03-02T13:39:02;28.60;;;21.00;;
58661;SDS011;44432;49.786;22.760;2024-03-02T13:41:33;29.00;;;21.50;;
58661;SDS011;44432;49.786;22.760;2024-03-02T13:44:05;30.00;;;22.10;;
58661;SDS011;44432;49.786;22.760;2024-03-02T13:46:36;39.90;;;28.30;;
58661;SDS011;44432;49.786;22.760;2024-03-02T13:49:07;34.70;;;26.00;;
58661;SDS011;44432;49.786;22.760;2024-03-02T13:51:37;41.70;;;27.30;;
58661;SDS011;44432;49.786;22.760;2024-03-02T13:54:08;38.60;;;27.80;;
58661;SDS011;44432;49.786;22.760;2024-03-02T13:56:39;36.40;;;24.40;;
58661;SDS011;44432;49.786;22.760;2024-03-02T13:59:10;37.50;;;24.50;;
58661;SDS011;44432;49.786;22.760;2024-03-02T14:01:41;34.00;;;23.10;;
58661;SDS011;44432;49.786;22.760;2024-03-02T14:04:13;30.70;;;22.10;;
58661;SDS011;44432;49.786;22.760;2024-03-02T14:06:44;32.20;;;22.40;;
58661;SDS011;44432;49.786;22.760;2024-03-02T14:09:14;36.00;;;22.90;;
58661;SDS011;44432;49.786;22.760;2024-03-02T14:11:48;31.60;;;21.00;;
58661;SDS011;44432;49.786;22.760;2024-03-02T14:14:20;32.50;;;21.90;;
58661;SDS011;44432;49.786;22.760;2024-03-02T14:16:52;33.40;;;21.70;;
58661;SDS011;44432;49.786;22.760;2024-03-02T14:19:24;37.80;;;23.80;;
58661;SDS011;44432;49.786;22.760;2024-03-02T14:21:56;33.80;;;23.00;;
58661;SDS011;44432;49.786;22.760;2024-03-02T14:24:26;29.10;;;21.90;;
58661;SDS011;44432;49.786;22.760;2024-03-02T14:26:57;34.30;;;24.70;;
58661;SDS011;44432;49.786;22.760;2024-03-02T14:29:30;33.20;;;23.60;;
58661;SDS011;44432;49.786;22.760;2024-03-02T14:32:04;32.90;;;23.00;;
58661;SDS011;44432;49.786;22.760;2024-03-02T14:34:36;32.10;;;23.10;;
58661;SDS011;44432;49.786;22.760;2024-03-02T14:37:07;34.60;;;24.80;;
58661;SDS011;44432;49.786;22.760;2024-03-02T14:39:38;42.70;;;26.30;;
58661;SDS011;44432;49.786;22.760;2024-03-02T14:42:08;37.90;;;26.70;;
58661;SDS011;44432;49.786;22.760;2024-03-02T14:44:39;40.60;;;26.30;;
58661;SDS011;44432;49.786;22.760;2024-03-02T14:47:10;37.30;;;26.20;;